首页
METAR-TAF:

METAR-TAF

机场 :

Bradford, 宾夕法尼亚州, 美国

纬度: 41-47-55N, 经度: 078-38-09W, 海拔: 653米

当前天气观测

该预报发布于14分钟前的07:53 UTC
风速9节,风向东南
温度 -4°C
湿度 58%
气压 1024 hPa
能見度: 16.1公里
天空无云

METAR: KBFD 130753Z AUTO 14009KT 10SM CLR M04/M11 A3024 RMK AO2 SLP265 T10391106

时间: 03:07 (08:07 UTC)

预报

该预报发布于2小时和10分钟前的05:57 UTC
预报有效从13日的 06点(UTC)到 14日的 06点(UTC)
风速9节,风向南转南东,有时为15节阵风
能見度: 10公里
多云层高于20000英尺
从 13日的 1030点(UTC)
风速8节,风向南转南东
能見度: 10公里
多云层高于20000英尺
从 13日的 1500点(UTC)
风速8节,风向南转南东,有时为15节阵风
能見度: 10公里
阴天层高于10000英尺
从 13日的 2000点(UTC)
风速6节,风向南转南东
能見度: 10公里
阴天层高于2500英尺
附近有阵雨

TAF: KBFD 130557Z 1306/1406 16009G15KT P6SM BKN200 FM131030 16008KT P6SM BKN200 FM131500 16008G15KT P6SM OVC100 FM132000 15006KT P6SM VCSH OVC025

超过4000个机场的气象观测和天气预报(METAR&TAF报告)。

可查询的气象台以黄色和红色小点在地图上表示。

将鼠标移到小点上方,可查看气象台名称。

然后点击查看天气观测和预报。

如需切换地图:点击带黑十字的绿色按钮放大地图;点击带横线的绿色按钮缩小地图;或者点击绿色箭头查看邻近地区的地图。


METAR-TAF: